11:15
Airports
Links
Donate
Help keep this website running!
PayPal
Bitcoin
METAR
CYUY 111107Z 25003KT 4SM -SN SCT005 SCT240 M23/M26 A2994 RMK SC4CI1 CI TR SLP174
Current Weather Conditions at CYUY
MVFR 11:07:00 11-12-17
Altimeter:29.94 hg
Temp:-23.0°c -9°f
Dew point:-26.0°c -15°f
Wind:3 knots, 3.5 mph, 2 m/s, from 250°
Visibility:4.0 statute miles
24000(SCT) Scattered
500(SCT) Scattered
Past METAR reports
IFR 11:00:00 11-12-17
Altimeter:29.94 hg
Temp:-23.0°c -9°f
Dew point:-25.0°c -13°f
Wind:4 knots, 4.6 mph, 2 m/s, from 260°
Visibility:3.0 statute miles
500(BKN) Broken
CYUY 111100Z 26004KT 3SM -SN BKN005 M23/M25 A2994 RMK SC7 SLP175
IFR 10:33:00 11-12-17
Altimeter:29.94 hg
Temp:-23.0°c -9°f
Dew point:-26.0°c -15°f
Wind:4 knots, 4.6 mph, 2 m/s, from 250°
Visibility:1.0 statute miles
500(OVC) Overcast
CYUY 111033Z 25004KT 1SM -SN OVC005 M23/M26 A2994 RMK SN5SC3 SLP173
IFR 10:15:00 11-12-17
Altimeter:29.94 hg
Temp:-22.0°c -8°f
Dew point:-25.0°c -13°f
Wind:4 knots, 4.6 mph, 2 m/s, from 270°
Visibility:1.25 statute miles
800(OVC) Overcast
CYUY 111015Z 27004KT 1 1/4SM -SN OVC008 M22/M25 A2994 RMK SN3SC5 SLP172
IFR 10:08:00 11-12-17
Altimeter:29.94 hg
Temp:-22.0°c -8°f
Dew point:-25.0°c -13°f
Wind:5 knots, 5.8 mph, 3 m/s, from 290°
Visibility:1.25 statute miles
1000(OVC) Overcast
CYUY 111008Z 29005KT 1 1/4SM -SN OVC010 M22/M25 A2994 RMK SN2SC6 SLP172
MVFR 10:00:00 11-12-17
Altimeter:29.94 hg
Temp:-22.0°c -8°f
Dew point:-25.0°c -13°f
Wind:5 knots, 5.8 mph, 3 m/s, from 290°
Visibility:5.0 statute miles
1400(OVC) Overcast
CYUY 111000Z 29005KT 5SM -SN OVC014 M22/M25 A2994 RMK SC8 VIS LWR W SLP172
IFR 09:53:00 11-12-17
Altimeter:29.94 hg
Temp:-22.0°c -8°f
Dew point:-25.0°c -13°f
Wind:6 knots, 6.9 mph, 3 m/s, from 290°
Visibility:2.5 statute miles
1200(OVC) Overcast
CYUY 110953Z 29006KT 2 1/2SM -SN OVC012 M22/M25 A2994 RMK SC8 SLP171
TAF
TAF AMD CYUY 111114Z 1111/1118 28005KT P6SM SCT005 TEMPO 1111/1113 4SM -SN BKN005 FM111300 VRB03KT P6SM FEW020 TEMPO 1113/1116 BKN020 BECMG 1116/1118 20010KT RMK NXT FCST BY 111200Z
Forecast at CYUY
11:00 11-12-17 to 13:00 11-12-17
Wind:5 Knots from 280°
Visibility:6.21 statute miles
500SCT Scattered
TEMPO 11:00 11-12-17 to 13:00 11-12-17
-SN
Visibility:4.0 statute miles
500BKN Broken
FM 13:00 11-12-17 to 16:00 11-12-17
Wind:3 Knots from 360°
Visibility:6.21 statute miles
2000FEW A few
TEMPO 13:00 11-12-17 to 16:00 11-12-17
2000BKN Broken
BECMG 16:00 11-12-17 to 18:00 11-12-17
Wind:10 Knots from 200°
Visibility:6.21 statute miles
2000FEW A few